Time;durP1;ratioP1;P1;durP2;ratioP2;P2;SDS_P1;SDS_P2;PMS_P1;PMS_P2;Temp;Humidity;BMP_temperature;BMP_pressure;BME280_temperature;BME280_humidity;BME280_pressure;Samples;Min_cycle;Max_cycle;Signal;HPM_P1;HPM_P2
2022/12/31 00:01:06;;;;;;;;;;;12.60;99.90;;;;;;5177941;27;20001;-69
2022/12/31 00:03:31;;;;;;;;;;;12.50;99.90;;;;;;5157659;27;19944;-69
2022/12/31 00:05:57;;;;;;;;;;;12.60;99.90;;;;;;5138243;27;19923;-69
2022/12/31 00:08:22;;;;;;;;;;;12.60;99.90;;;;;;5138454;27;19923;-69
2022/12/31 00:10:48;;;;;;;;;;;12.80;99.90;;;;;;5148884;27;20421;-69
2022/12/31 00:13:14;;;;;;;;;;;;;;;;;;5177473;27;19930;-69
2022/12/31 00:15:40;;;;;;;;;;;12.80;99.90;;;;;;5175130;27;19919;-69
2022/12/31 00:18:06;;;;;;;;;;;12.70;99.90;;;;;;5157000;27;19923;-70
2022/12/31 00:20:32;;;;;;;;;;;12.80;99.90;;;;;;5137564;27;20292;-70
2022/12/31 00:22:57;;;;;;;;;;;12.70;99.90;;;;;;5138066;27;19923;-70
2022/12/31 00:25:23;;;;;;;;;;;12.70;99.90;;;;;;5156424;27;19919;-70
2022/12/31 00:27:48;;;;;;;;;;;12.40;99.90;;;;;;5137966;27;19926;-69
2022/12/31 00:30:14;;;;;;;;;;;12.60;99.90;;;;;;5142724;27;19918;-69
2022/12/31 00:32:39;;;;;;;;;;;12.50;99.90;;;;;;5158527;27;20021;-70
2022/12/31 00:35:05;;;;;;;;;;;;;;;;;;5177401;27;19918;-70
2022/12/31 00:37:31;;;;;;;;;;;12.90;99.90;;;;;;5158488;27;20535;-70
2022/12/31 00:39:56;;;;;;;;;;;12.60;99.90;;;;;;5177412;27;19925;-70
2022/12/31 00:42:22;;;;;;;;;;;12.40;99.90;;;;;;5166493;27;19926;-70
2022/12/31 00:44:48;;;;;;;;;;;;;;;;;;5170377;27;19962;-70
2022/12/31 00:47:13;;;;;;;;;;;12.70;99.90;;;;;;5158430;27;19919;-70
2022/12/31 00:49:39;;;;;;;;;;;12.20;99.90;;;;;;5159047;27;19919;-70
2022/12/31 00:52:05;;;;;;;;;;;12.60;99.90;;;;;;5159055;27;19954;-69
2022/12/31 00:54:30;;;;;;;;;;;;;;;;;;5158788;27;19922;-70
2022/12/31 00:56:56;;;;;;;;;;;12.40;99.90;;;;;;5158391;27;19919;-70
2022/12/31 00:59:22;;;;;;;;;;;12.90;99.90;;;;;;5141386;27;19923;-70
2022/12/31 01:01:48;;;;;;;;;;;12.70;99.90;;;;;;5140885;27;19926;-70
2022/12/31 01:04:16;;;;;;;;;;;12.50;99.90;;;;;;5176839;27;20379;-70
2022/12/31 01:06:42;;;;;;;;;;;;;;;;;;5158175;27;20283;-68
2022/12/31 01:09:08;;;;;;;;;;;12.60;99.90;;;;;;5176747;27;19923;-69
2022/12/31 01:11:34;;;;;;;;;;;12.70;99.90;;;;;;5138461;27;19919;-69
2022/12/31 01:14:03;;;;;;;;;;;12.40;99.90;;;;;;5137191;27;19923;-68
2022/12/31 01:16:33;;;;;;;;;;;12.60;99.90;;;;;;5136796;27;19927;-68
2022/12/31 01:19:00;;;;;;;;;;;12.20;99.90;;;;;;5137296;27;20299;-69
2022/12/31 01:21:26;;;;;;;;;;;;;;;;;;5150035;27;19919;-68
2022/12/31 01:23:52;;;;;;;;;;;;;;;;;;5140663;27;19919;-68
2022/12/31 01:26:18;;;;;;;;;;;12.40;99.90;;;;;;5140749;27;19969;-69
2022/12/31 01:28:44;;;;;;;;;;;12.30;99.90;;;;;;5157559;27;19926;-68
2022/12/31 01:31:10;;;;;;;;;;;12.60;99.90;;;;;;5140343;27;19918;-68
2022/12/31 01:33:36;;;;;;;;;;;12.40;99.90;;;;;;5156259;27;19929;-68
2022/12/31 01:36:02;;;;;;;;;;;;;;;;;;5168295;27;20001;-68
2022/12/31 01:38:27;;;;;;;;;;;12.50;99.90;;;;;;5136516;27;19923;-68
2022/12/31 01:40:53;;;;;;;;;;;12.40;99.90;;;;;;5162562;27;19945;-68
2022/12/31 01:43:19;;;;;;;;;;;12.40;99.90;;;;;;5176004;27;19918;-68
2022/12/31 01:45:46;;;;;;;;;;;12.70;99.90;;;;;;5156988;27;19926;-68
2022/12/31 01:48:12;;;;;;;;;;;;;;;;;;5157497;27;19964;-68
2022/12/31 01:50:39;;;;;;;;;;;;;;;;;;5157160;27;19930;-68
2022/12/31 01:53:06;;;;;;;;;;;12.80;99.90;;;;;;5156850;27;19923;-68
2022/12/31 01:55:33;;;;;;;;;;;12.30;99.90;;;;;;5145448;27;20052;-68
2022/12/31 01:58:22;;;;;;;;;;;12.40;99.90;;;;;;5136229;27;20372;-68
2022/12/31 02:00:48;;;;;;;;;;;12.60;99.90;;;;;;5125221;27;19923;-68
2022/12/31 02:03:14;;;;;;;;;;;12.90;99.90;;;;;;5154632;27;19926;-68
2022/12/31 02:05:39;;;;;;;;;;;12.90;99.90;;;;;;5135794;27;20017;-68
2022/12/31 02:08:05;;;;;;;;;;;;;;;;;;5136353;27;19919;-68
2022/12/31 02:10:31;;;;;;;;;;;12.70;99.90;;;;;;5153384;27;19918;-68
2022/12/31 02:12:56;;;;;;;;;;;12.80;99.90;;;;;;5175453;27;19966;-68
2022/12/31 02:15:26;;;;;;;;;;;12.80;99.90;;;;;;5156501;27;19919;-68
2022/12/31 02:17:52;;;;;;;;;;;;;;;;;;5156301;27;19926;-68
2022/12/31 02:20:17;;;;;;;;;;;12.80;99.90;;;;;;5156352;27;19941;-68
2022/12/31 02:22:43;;;;;;;;;;;;;;;;;;5173626;27;20523;-68
2022/12/31 02:25:27;;;;;;;;;;;12.90;99.90;;;;;;5156577;27;19971;-68
2022/12/31 02:28:22;;;;;;;;;;;12.50;99.90;;;;;;5175188;27;19922;-68
2022/12/31 02:30:50;;;;;;;;;;;12.50;99.90;;;;;;5125061;27;20417;-68
2022/12/31 02:33:20;;;;;;;;;;;13.00;99.90;;;;;;5156186;27;19982;-69
2022/12/31 02:35:48;;;;;;;;;;;12.40;99.90;;;;;;5134124;27;19925;-69
2022/12/31 02:38:34;;;;;;;;;;;12.80;99.90;;;;;;5154270;27;19922;-69
2022/12/31 02:41:00;;;;;;;;;;;12.30;99.90;;;;;;5135329;27;19926;-69
2022/12/31 02:43:26;;;;;;;;;;;12.70;99.90;;;;;;5135156;27;19923;-69
2022/12/31 02:46:10;;;;;;;;;;;12.60;99.90;;;;;;5118344;27;19964;-69
2022/12/31 02:48:39;;;;;;;;;;;12.60;99.90;;;;;;5135724;27;19944;-69
2022/12/31 02:51:04;;;;;;;;;;;12.60;99.90;;;;;;5167860;27;19919;-69
2022/12/31 02:53:30;;;;;;;;;;;;;;;;;;5121051;27;19924;-69
2022/12/31 02:56:10;;;;;;;;;;;12.90;99.90;;;;;;5134955;27;20144;-69
2022/12/31 03:04:31;;;;;;;;;;;12.30;99.90;;;;;;5134740;27;19918;-69
2022/12/31 03:06:58;;;;;;;;;;;12.70;99.90;;;;;;5175952;27;19971;-69
2022/12/31 03:09:24;;;;;;;;;;;12.60;99.90;;;;;;5156781;27;20005;-68
2022/12/31 03:14:33;;;;;;;;;;;12.40;99.90;;;;;;5175068;27;20407;-69
2022/12/31 03:16:59;;;;;;;;;;;;;;;;;;5174457;27;19958;-68
2022/12/31 03:22:26;;;;;;;;;;;12.60;99.90;;;;;;5153948;27;19926;-69
2022/12/31 03:27:37;;;;;;;;;;;;;;;;;;5155722;27;19968;-69
2022/12/31 03:30:02;;;;;;;;;;;12.70;99.90;;;;;;5174532;27;19926;-69
2022/12/31 03:32:28;;;;;;;;;;;;;;;;;;5171394;27;19919;-69
2022/12/31 03:34:54;;;;;;;;;;;12.40;99.90;;;;;;5153488;27;19982;-69
2022/12/31 03:37:20;;;;;;;;;;;12.40;99.90;;;;;;5117434;27;19925;-69
2022/12/31 03:39:45;;;;;;;;;;;12.10;99.90;;;;;;5134947;27;19919;-69
2022/12/31 03:42:11;;;;;;;;;;;12.50;99.90;;;;;;5136019;27;19993;-69
2022/12/31 03:44:36;;;;;;;;;;;12.20;99.90;;;;;;5153574;27;19919;-69
2022/12/31 03:47:02;;;;;;;;;;;12.30;99.90;;;;;;5140198;27;19919;-69
2022/12/31 03:49:27;;;;;;;;;;;12.30;99.90;;;;;;5155576;27;19930;-69
2022/12/31 03:51:53;;;;;;;;;;;12.70;99.90;;;;;;5155230;27;19972;-68
2022/12/31 03:54:18;;;;;;;;;;;12.40;99.90;;;;;;5155408;27;19923;-69
2022/12/31 03:56:44;;;;;;;;;;;12.30;99.90;;;;;;5139825;27;19918;-69
2022/12/31 03:59:10;;;;;;;;;;;;;;;;;;5159418;27;19919;-69
2022/12/31 04:01:35;;;;;;;;;;;12.30;99.90;;;;;;5170075;27;19927;-69
2022/12/31 04:04:01;;;;;;;;;;;12.30;99.90;;;;;;5157234;27;19919;-69
2022/12/31 04:06:26;;;;;;;;;;;;;;;;;;5138071;27;19919;-69
2022/12/31 04:08:52;;;;;;;;;;;;;;;;;;5138801;27;20366;-69
2022/12/31 04:11:18;;;;;;;;;;;;;;;;;;5138704;27;19966;-69
2022/12/31 04:13:44;;;;;;;;;;;12.20;99.90;;;;;;5138206;27;19962;-69
2022/12/31 04:16:09;;;;;;;;;;;12.40;99.90;;;;;;5167057;27;19973;-69
2022/12/31 04:18:35;;;;;;;;;;;12.10;99.90;;;;;;5129307;27;20427;-68
2022/12/31 04:21:04;;;;;;;;;;;12.60;99.90;;;;;;5156840;27;19926;-69
2022/12/31 04:23:29;;;;;;;;;;;12.40;99.90;;;;;;5156900;27;19919;-69
2022/12/31 04:25:55;;;;;;;;;;;12.10;99.90;;;;;;5137876;27;19919;-69
2022/12/31 04:28:20;;;;;;;;;;;12.30;99.90;;;;;;5138044;27;19926;-69
2022/12/31 04:30:46;;;;;;;;;;;;;;;;;;5152009;27;20002;-69
2022/12/31 04:33:11;;;;;;;;;;;12.40;99.90;;;;;;5141439;27;19923;-69
2022/12/31 04:35:37;;;;;;;;;;;12.40;99.90;;;;;;5177109;27;19923;-69
2022/12/31 04:38:02;;;;;;;;;;;12.30;99.90;;;;;;5176803;27;20371;-69
2022/12/31 04:40:28;;;;;;;;;;;12.20;99.90;;;;;;5141108;27;19958;-69
2022/12/31 04:42:53;;;;;;;;;;;12.20;99.90;;;;;;5158388;27;19919;-68
2022/12/31 04:45:19;;;;;;;;;;;12.50;99.90;;;;;;5177104;27;19975;-69
2022/12/31 04:47:45;;;;;;;;;;;;;;;;;;5156757;27;19919;-69
2022/12/31 04:50:10;;;;;;;;;;;12.30;99.90;;;;;;5141050;27;20002;-69
2022/12/31 04:52:36;;;;;;;;;;;12.30;99.90;;;;;;5176933;27;19926;-69
2022/12/31 04:55:02;;;;;;;;;;;12.10;99.90;;;;;;5158310;27;19930;-69
2022/12/31 04:57:27;;;;;;;;;;;12.10;99.90;;;;;;5158029;27;19923;-69
2022/12/31 04:59:53;;;;;;;;;;;12.00;99.90;;;;;;5158426;27;19954;-69
2022/12/31 05:02:18;;;;;;;;;;;12.30;99.90;;;;;;5157852;27;20005;-69
2022/12/31 05:04:44;;;;;;;;;;;12.30;99.90;;;;;;5156134;27;19919;-69
2022/12/31 05:07:09;;;;;;;;;;;12.20;99.90;;;;;;5119899;27;19919;-69
2022/12/31 05:09:35;;;;;;;;;;;12.50;99.90;;;;;;5137121;27;19920;-69
2022/12/31 05:12:00;;;;;;;;;;;;;;;;;;5155657;27;20408;-69
2022/12/31 05:14:26;;;;;;;;;;;12.50;99.90;;;;;;5137154;27;20399;-69
2022/12/31 05:16:51;;;;;;;;;;;12.50;99.90;;;;;;5155549;27;20009;-69
2022/12/31 05:19:17;;;;;;;;;;;12.40;99.90;;;;;;5156877;27;19975;-69
2022/12/31 05:21:42;;;;;;;;;;;12.20;99.90;;;;;;5136846;27;19919;-69
2022/12/31 05:24:08;;;;;;;;;;;12.20;99.90;;;;;;5137557;27;20362;-68
2022/12/31 05:26:34;;;;;;;;;;;12.60;99.90;;;;;;5137420;27;19925;-69
2022/12/31 05:28:59;;;;;;;;;;;12.30;99.90;;;;;;5154518;27;19919;-68
2022/12/31 05:31:25;;;;;;;;;;;;;;;;;;5158253;27;19925;-68
2022/12/31 05:33:51;;;;;;;;;;;12.30;99.90;;;;;;5176135;27;20436;-69
2022/12/31 05:36:17;;;;;;;;;;;12.50;99.90;;;;;;5155608;27;19974;-69
2022/12/31 05:38:42;;;;;;;;;;;12.20;99.90;;;;;;5167197;27;19922;-69
2022/12/31 05:41:08;;;;;;;;;;;;;;;;;;5136778;27;19926;-69
2022/12/31 05:43:34;;;;;;;;;;;;;;;;;;5136441;27;19926;-69
2022/12/31 05:46:00;;;;;;;;;;;12.30;99.90;;;;;;5121781;27;19926;-69
2022/12/31 05:48:26;;;;;;;;;;;12.40;99.90;;;;;;5119777;27;20381;-69
2022/12/31 05:50:52;;;;;;;;;;;12.20;99.90;;;;;;5136381;27;19926;-68
2022/12/31 05:53:17;;;;;;;;;;;12.50;99.90;;;;;;5139202;27;19934;-69
2022/12/31 05:55:44;;;;;;;;;;;12.70;99.90;;;;;;5165449;27;19919;-69
2022/12/31 05:58:09;;;;;;;;;;;12.60;99.90;;;;;;5145241;27;19919;-70
2022/12/31 06:00:35;;;;;;;;;;;;;;;;;;5163997;27;20037;-69
2022/12/31 06:03:01;;;;;;;;;;;12.50;99.90;;;;;;5157597;27;19919;-69
2022/12/31 06:05:26;;;;;;;;;;;;;;;;;;5156824;27;19919;-69
2022/12/31 06:07:52;;;;;;;;;;;12.20;99.90;;;;;;5156974;27;20502;-69
2022/12/31 06:10:18;;;;;;;;;;;;;;;;;;5154070;27;19922;-69
2022/12/31 06:12:44;;;;;;;;;;;;;;;;;;5175293;27;20568;-69
2022/12/31 06:15:09;;;;;;;;;;;12.40;99.90;;;;;;5175317;27;19927;-70
2022/12/31 06:17:35;;;;;;;;;;;12.70;99.90;;;;;;5175439;27;19919;-69
2022/12/31 06:20:00;;;;;;;;;;;12.50;99.90;;;;;;5139043;27;19919;-69
2022/12/31 06:22:26;;;;;;;;;;;12.30;99.90;;;;;;5139207;27;19919;-69
2022/12/31 06:24:51;;;;;;;;;;;12.60;99.90;;;;;;5137235;27;19923;-69
2022/12/31 06:27:17;;;;;;;;;;;;;;;;;;5161685;27;19923;-69
2022/12/31 06:29:44;;;;;;;;;;;12.40;99.90;;;;;;5139269;27;19941;-69
2022/12/31 06:32:10;;;;;;;;;;;12.60;99.90;;;;;;5156339;27;20385;-69
2022/12/31 06:34:36;;;;;;;;;;;;;;;;;;5156404;27;19923;-69
2022/12/31 06:37:01;;;;;;;;;;;12.20;99.90;;;;;;5156194;27;19970;-69
2022/12/31 06:39:27;;;;;;;;;;;12.60;99.90;;;;;;5174987;27;19982;-69
2022/12/31 06:41:53;;;;;;;;;;;;;;;;;;5157028;27;19930;-69
2022/12/31 06:44:21;;;;;;;;;;;12.30;99.90;;;;;;5158628;27;19925;-69
2022/12/31 06:46:47;;;;;;;;;;;12.20;99.90;;;;;;5141084;27;19971;-69
2022/12/31 06:49:12;;;;;;;;;;;12.20;99.90;;;;;;5156699;27;19922;-69
2022/12/31 06:51:38;;;;;;;;;;;12.30;99.90;;;;;;5174902;27;19923;-69
2022/12/31 06:54:03;;;;;;;;;;;;;;;;;;5156154;27;19986;-69
2022/12/31 06:56:29;;;;;;;;;;;12.20;99.90;;;;;;5155662;27;19919;-69
2022/12/31 06:58:55;;;;;;;;;;;;;;;;;;5154038;27;20013;-69
2022/12/31 07:01:21;;;;;;;;;;;;;;;;;;5145153;27;19934;-69
2022/12/31 07:04:02;;;;;;;;;;;12.00;99.90;;;;;;5140657;27;20327;-69
2022/12/31 07:06:28;;;;;;;;;;;;;;;;;;5153550;27;19923;-69
2022/12/31 07:08:53;;;;;;;;;;;12.00;99.90;;;;;;5135211;27;19930;-69
2022/12/31 07:11:30;;;;;;;;;;;11.80;99.90;;;;;;5153970;27;19919;-70
2022/12/31 07:14:10;;;;;;;;;;;12.30;99.90;;;;;;5135169;27;19923;-69
2022/12/31 07:16:50;;;;;;;;;;;12.50;99.90;;;;;;5166172;27;19925;-69
2022/12/31 07:19:16;;;;;;;;;;;12.10;99.90;;;;;;5155922;27;19923;-69
2022/12/31 07:21:42;;;;;;;;;;;12.20;99.90;;;;;;5174736;27;19918;-69
2022/12/31 07:24:08;;;;;;;;;;;12.60;99.90;;;;;;5138960;27;20276;-69
2022/12/31 07:26:44;;;;;;;;;;;12.40;99.90;;;;;;5155854;27;20284;-69
2022/12/31 07:29:24;;;;;;;;;;;12.10;99.90;;;;;;5155965;27;19919;-69
2022/12/31 07:32:01;;;;;;;;;;;11.80;99.90;;;;;;5159246;27;19970;-69
2022/12/31 07:34:36;;;;;;;;;;;11.80;99.90;;;;;;5139193;27;19967;-69
2022/12/31 07:37:02;;;;;;;;;;;;;;;;;;5157460;27;20285;-69
2022/12/31 07:39:51;;;;;;;;;;;11.70;99.90;;;;;;5139128;27;19923;-69
2022/12/31 07:42:23;;;;;;;;;;;12.00;99.90;;;;;;5127676;27;20379;-70
2022/12/31 07:45:18;;;;;;;;;;;12.10;99.90;;;;;;5122084;27;19927;-69
2022/12/31 07:47:43;;;;;;;;;;;11.90;99.90;;;;;;5148603;27;19926;-70
2022/12/31 07:50:16;;;;;;;;;;;11.90;99.90;;;;;;5159056;27;20379;-69
2022/12/31 07:52:42;;;;;;;;;;;12.20;99.90;;;;;;5138905;27;20013;-69
2022/12/31 07:55:09;;;;;;;;;;;12.00;99.90;;;;;;5157375;27;20022;-69
2022/12/31 07:57:39;;;;;;;;;;;12.00;99.90;;;;;;5138943;27;19919;-69
2022/12/31 08:00:05;;;;;;;;;;;;;;;;;;5139728;27;20380;-70
2022/12/31 08:02:31;;;;;;;;;;;;;;;;;;5157131;27;19964;-69
2022/12/31 08:05:15;;;;;;;;;;;12.50;99.90;;;;;;5138518;27;20306;-69
2022/12/31 08:07:56;;;;;;;;;;;12.30;99.90;;;;;;5138448;27;20001;-69
2022/12/31 08:10:21;;;;;;;;;;;;;;;;;;5138603;27;20009;-69
2022/12/31 08:12:48;;;;;;;;;;;12.30;99.90;;;;;;5157034;27;20423;-69
2022/12/31 08:15:14;;;;;;;;;;;;;;;;;;5152302;27;19923;-69
2022/12/31 08:17:40;;;;;;;;;;;;;;;;;;5157892;27;20393;-69
2022/12/31 08:20:06;;;;;;;;;;;11.90;99.90;;;;;;5148399;27;19919;-71
2022/12/31 08:22:34;;;;;;;;;;;12.50;99.90;;;;;;5166085;27;19925;-71
2022/12/31 08:24:59;;;;;;;;;;;12.20;99.90;;;;;;5127087;27;20395;-70
2022/12/31 08:27:33;;;;;;;;;;;12.70;99.90;;;;;;5130726;27;19977;-70
2022/12/31 08:30:08;;;;;;;;;;;12.30;99.90;;;;;;5165527;27;19958;-70
2022/12/31 08:32:41;;;;;;;;;;;12.70;99.90;;;;;;5131873;27;19923;-68
2022/12/31 08:35:07;;;;;;;;;;;;;;;;;;5166492;27;19923;-69
2022/12/31 08:37:42;;;;;;;;;;;13.00;99.90;;;;;;5165601;27;19926;-70
2022/12/31 08:40:27;;;;;;;;;;;12.60;99.90;;;;;;5146108;27;19927;-70
2022/12/31 08:43:07;;;;;;;;;;;13.10;99.90;;;;;;5166748;27;20341;-70
2022/12/31 08:45:38;;;;;;;;;;;13.00;99.90;;;;;;5148231;27;19919;-70
2022/12/31 08:48:07;;;;;;;;;;;13.30;99.90;;;;;;5149225;27;20009;-70
2022/12/31 08:50:32;;;;;;;;;;;12.80;99.90;;;;;;5158999;27;20343;-70
2022/12/31 08:52:58;;;;;;;;;;;13.00;99.90;;;;;;5172533;27;19923;-70
2022/12/31 08:55:24;;;;;;;;;;;13.00;99.90;;;;;;5171434;27;19918;-70
2022/12/31 08:58:08;;;;;;;;;;;13.00;99.90;;;;;;5151948;27;19923;-70
2022/12/31 09:00:34;;;;;;;;;;;13.50;99.90;;;;;;5153416;27;20355;-69
2022/12/31 09:03:00;;;;;;;;;;;;;;;;;;5164585;27;19971;-69
2022/12/31 09:05:51;;;;;;;;;;;13.60;99.90;;;;;;5143617;27;19922;-69
2022/12/31 09:08:17;;;;;;;;;;;;;;;;;;5140365;27;19922;-69
2022/12/31 09:10:46;;;;;;;;;;;13.90;99.90;;;;;;5145728;27;20002;-69
2022/12/31 09:13:12;;;;;;;;;;;;;;;;;;5141197;27;20009;-69
2022/12/31 09:15:38;;;;;;;;;;;;;;;;;;5116815;27;20009;-69
2022/12/31 09:18:03;;;;;;;;;;;13.30;99.90;;;;;;5163302;27;19927;-69
2022/12/31 09:20:30;;;;;;;;;;;13.50;99.90;;;;;;5164761;27;19979;-69
2022/12/31 09:22:56;;;;;;;;;;;13.50;99.90;;;;;;5159848;27;20547;-69
2022/12/31 09:25:23;;;;;;;;;;;14.00;99.90;;;;;;5164238;27;19919;-69
2022/12/31 09:27:49;;;;;;;;;;;;;;;;;;5127698;27;20005;-68
2022/12/31 09:30:15;;;;;;;;;;;;;;;;;;5136719;27;20055;-68
2022/12/31 09:32:43;;;;;;;;;;;13.60;99.90;;;;;;5135197;27;19923;-68
2022/12/31 09:35:10;;;;;;;;;;;;;;;;;;5135408;27;19927;-69
2022/12/31 09:37:36;;;;;;;;;;;;;;;;;;5152717;27;19919;-68
2022/12/31 09:40:27;;;;;;;;;;;13.70;99.90;;;;;;5159593;27;19975;-69
2022/12/31 09:43:00;;;;;;;;;;;13.50;99.90;;;;;;5067076;28;19924;-70
2022/12/31 09:45:25;;;;;;;;;;;13.80;99.90;;;;;;5152491;27;19969;-69
2022/12/31 09:47:54;;;;;;;;;;;15.30;99.90;;;;;;5164912;27;19975;-70
2022/12/31 09:50:27;;;;;;;;;;;13.80;99.90;;;;;;5160319;27;19974;-70
2022/12/31 09:53:00;;;;;;;;;;;13.40;99.90;;;;;;5123555;27;19923;-69
2022/12/31 09:55:44;;;;;;;;;;;13.60;99.90;;;;;;5140672;27;19923;-69
2022/12/31 09:58:28;;;;;;;;;;;14.40;99.90;;;;;;5142049;27;19919;-69
2022/12/31 10:01:05;;;;;;;;;;;14.10;99.90;;;;;;5166705;27;19923;-70
2022/12/31 10:03:41;;;;;;;;;;;13.80;99.90;;;;;;5121709;27;19919;-70
2022/12/31 10:06:25;;;;;;;;;;;13.70;99.90;;;;;;5136043;27;19926;-70
2022/12/31 10:09:01;;;;;;;;;;;14.00;99.90;;;;;;5138904;27;19919;-70
2022/12/31 10:11:39;;;;;;;;;;;13.70;99.90;;;;;;5142564;27;19962;-69
2022/12/31 10:14:23;;;;;;;;;;;14.10;99.90;;;;;;5125146;27;19923;-69
2022/12/31 10:16:55;;;;;;;;;;;14.00;99.90;;;;;;5143075;27;19923;-69
2022/12/31 10:19:39;;;;;;;;;;;13.60;99.90;;;;;;5166440;27;19923;-69
2022/12/31 10:22:13;;;;;;;;;;;14.20;99.90;;;;;;5164261;27;19930;-70
2022/12/31 10:24:57;;;;;;;;;;;13.90;99.90;;;;;;5133166;27;20662;-71
2022/12/31 10:27:23;;;;;;;;;;;14.40;99.90;;;;;;5137931;27;20438;-70
2022/12/31 10:29:53;;;;;;;;;;;14.30;99.90;;;;;;5157731;27;19930;-70
2022/12/31 10:32:20;;;;;;;;;;;14.30;99.90;;;;;;5118229;27;19935;-70
2022/12/31 10:34:53;;;;;;;;;;;14.20;99.90;;;;;;5133532;27;19934;-70
2022/12/31 10:37:25;;;;;;;;;;;14.40;99.90;;;;;;5136869;27;19923;-69
2022/12/31 10:39:59;;;;;;;;;;;14.40;99.90;;;;;;5151631;27;19923;-70
2022/12/31 10:42:43;;;;;;;;;;;14.20;99.90;;;;;;5135064;27;19919;-70
2022/12/31 10:45:11;;;;;;;;;;;14.20;99.90;;;;;;5135703;27;20371;-70
2022/12/31 10:47:39;;;;;;;;;;;;;;;;;;5134073;27;19945;-70
2022/12/31 10:50:05;;;;;;;;;;;;;;;;;;5142912;27;20786;-70
2022/12/31 10:53:00;;;;;;;;;;;14.60;99.90;;;;;;5136952;27;19984;-70
2022/12/31 10:55:35;;;;;;;;;;;14.30;99.90;;;;;;5138527;27;20002;-70
2022/12/31 10:58:08;;;;;;;;;;;14.30;99.90;;;;;;5139106;27;20276;-70
2022/12/31 11:00:47;;;;;;;;;;;14.60;99.90;;;;;;5152531;27;19998;-70
2022/12/31 11:03:31;;;;;;;;;;;14.50;99.90;;;;;;5133731;27;20013;-70
2022/12/31 11:06:15;;;;;;;;;;;14.50;99.90;;;;;;5138399;27;19929;-70
2022/12/31 11:08:41;;;;;;;;;;;14.60;99.90;;;;;;5159666;27;19926;-70
2022/12/31 11:11:07;;;;;;;;;;;;;;;;;;5119493;27;19918;-70
2022/12/31 11:13:45;;;;;;;;;;;14.70;99.90;;;;;;5135558;27;20336;-70
2022/12/31 11:16:19;;;;;;;;;;;14.80;99.90;;;;;;5122464;27;19946;-70
2022/12/31 11:18:46;;;;;;;;;;;;;;;;;;5136919;27;19920;-70
2022/12/31 11:21:18;;;;;;;;;;;;;;;;;;5157505;27;19919;-70
2022/12/31 11:23:44;;;;;;;;;;;;;;;;;;5133738;27;19927;-70
2022/12/31 11:26:10;;;;;;;;;;;14.70;99.90;;;;;;5134148;27;19923;-70
2022/12/31 11:28:35;;;;;;;;;;;14.90;99.90;;;;;;5139764;27;19919;-70
2022/12/31 11:31:01;;;;;;;;;;;;;;;;;;5141509;27;19919;-70
2022/12/31 11:33:45;;;;;;;;;;;14.50;99.90;;;;;;5134217;27;19926;-70
2022/12/31 11:36:31;;;;;;;;;;;15.00;99.90;;;;;;5142607;27;20368;-70
2022/12/31 11:39:03;;;;;;;;;;;14.80;99.90;;;;;;5142492;27;19919;-70
2022/12/31 11:41:29;;;;;;;;;;;;;;;;;;5135004;27;19919;-70
2022/12/31 11:44:10;;;;;;;;;;;14.50;99.90;;;;;;5152803;27;20361;-70
2022/12/31 11:46:36;;;;;;;;;;;14.70;99.90;;;;;;5152377;27;20371;-70
2022/12/31 11:49:07;;;;;;;;;;;14.80;99.90;;;;;;5141247;27;19941;-70
2022/12/31 11:51:51;;;;;;;;;;;14.60;99.90;;;;;;5121009;27;19925;-70
2022/12/31 11:54:28;;;;;;;;;;;15.10;99.90;;;;;;5155225;27;19923;-70
2022/12/31 11:57:16;;;;;;;;;;;14.60;99.90;;;;;;5154596;27;19923;-71
2022/12/31 11:59:41;;;;;;;;;;;14.40;99.90;;;;;;5155043;27;19925;-70
2022/12/31 12:02:07;;;;;;;;;;;;;;;;;;5154376;27;20341;-70
2022/12/31 12:04:33;;;;;;;;;;;;;;;;;;5162722;27;19923;-70
2022/12/31 12:06:59;;;;;;;;;;;14.70;99.90;;;;;;5120835;27;19923;-70
2022/12/31 12:09:27;;;;;;;;;;;15.10;99.90;;;;;;5136873;27;19919;-70
2022/12/31 12:11:59;;;;;;;;;;;15.20;99.90;;;;;;5149312;27;20614;-70
2022/12/31 12:14:30;;;;;;;;;;;14.60;99.90;;;;;;5130371;27;19927;-70
2022/12/31 12:16:56;;;;;;;;;;;15.10;99.90;;;;;;5159474;27;19919;-76
2022/12/31 12:19:24;;;;;;;;;;;14.70;99.90;;;;;;5145449;27;19926;-74
2022/12/31 12:21:50;;;;;;;;;;;14.80;99.90;;;;;;5159014;27;19923;-74
2022/12/31 12:24:24;;;;;;;;;;;15.10;99.90;;;;;;5122636;27;19930;-73
2022/12/31 12:26:50;;;;;;;;;;;14.80;99.90;;;;;;5147403;27;19930;-73
2022/12/31 12:29:15;;;;;;;;;;;15.20;99.90;;;;;;5165563;27;19919;-74
2022/12/31 12:31:41;;;;;;;;;;;14.60;99.90;;;;;;5123382;27;20456;-73
2022/12/31 12:34:21;;;;;;;;;;;14.90;99.90;;;;;;5147368;27;20011;-73
2022/12/31 12:36:47;;;;;;;;;;;14.60;99.90;;;;;;5125409;27;19966;-73
2022/12/31 12:39:26;;;;;;;;;;;15.00;99.90;;;;;;5137832;27;20348;-74
2022/12/31 12:42:02;;;;;;;;;;;14.40;99.90;;;;;;5120714;27;19926;-73
2022/12/31 12:44:28;;;;;;;;;;;15.00;99.90;;;;;;5137293;27;20310;-73
2022/12/31 12:46:54;;;;;;;;;;;14.50;99.90;;;;;;5138254;27;19923;-73
2022/12/31 12:49:31;;;;;;;;;;;15.00;99.90;;;;;;5154500;27;19923;-72
2022/12/31 12:52:24;;;;;;;;;;;14.80;99.90;;;;;;5143442;27;19919;-72
2022/12/31 12:54:50;;;;;;;;;;;;;;;;;;5156974;27;20013;-73
2022/12/31 12:57:27;;;;;;;;;;;14.50;99.90;;;;;;5137951;27;19959;-74
2022/12/31 12:59:55;;;;;;;;;;;14.90;99.90;;;;;;5165811;27;20438;-71
2022/12/31 13:02:30;;;;;;;;;;;14.70;99.90;;;;;;5145920;27;19926;-72
2022/12/31 13:05:05;;;;;;;;;;;14.40;99.90;;;;;;5132661;27;20031;-74
2022/12/31 13:07:43;;;;;;;;;;;14.50;99.90;;;;;;5158233;27;20295;-74
2022/12/31 13:10:18;;;;;;;;;;;14.60;99.90;;;;;;5137065;27;19919;-73
2022/12/31 13:12:49;;;;;;;;;;;14.90;99.90;;;;;;5155376;27;19919;-73
2022/12/31 13:15:17;;;;;;;;;;;14.30;99.90;;;;;;5154543;27;20293;-73
2022/12/31 13:17:42;;;;;;;;;;;14.60;99.90;;;;;;5119932;27;20489;-73
2022/12/31 13:20:34;;;;;;;;;;;14.20;99.90;;;;;;5119742;27;20037;-74
2022/12/31 13:23:15;;;;;;;;;;;14.70;99.90;;;;;;5160599;27;19922;-73
2022/12/31 13:25:41;;;;;;;;;;;14.40;99.90;;;;;;5140759;27;19926;-74
2022/12/31 13:28:09;;;;;;;;;;;14.30;99.90;;;;;;5145350;27;19962;-74
2022/12/31 13:30:37;;;;;;;;;;;14.70;99.90;;;;;;5139972;27;19923;-73
2022/12/31 13:33:06;;;;;;;;;;;14.10;99.90;;;;;;5123131;27;20370;-75
2022/12/31 13:35:40;;;;;;;;;;;14.70;99.90;;;;;;5123907;27;20405;-73
2022/12/31 13:38:06;;;;;;;;;;;;;;;;;;5146256;27;20376;-73
2022/12/31 13:40:47;;;;;;;;;;;14.40;99.90;;;;;;5144494;27;20428;-73
2022/12/31 13:43:36;;;;;;;;;;;14.50;99.90;;;;;;5140147;27;19919;-74
2022/12/31 13:46:07;;;;;;;;;;;14.40;99.90;;;;;;5103605;27;19919;-74
2022/12/31 13:48:39;;;;;;;;;;;14.20;99.90;;;;;;5128434;27;19986;-74
2022/12/31 13:51:10;;;;;;;;;;;14.40;99.90;;;;;;5141612;27;19973;-74
2022/12/31 13:53:40;;;;;;;;;;;14.00;99.90;;;;;;5163777;27;20403;-74
2022/12/31 13:56:11;;;;;;;;;;;14.10;99.90;;;;;;5150899;27;19963;-75
2022/12/31 13:58:44;;;;;;;;;;;14.20;99.90;;;;;;5142859;27;20402;-74
2022/12/31 14:01:28;;;;;;;;;;;13.80;99.90;;;;;;5147943;27;20426;-74
2022/12/31 14:03:54;;;;;;;;;;;;;;;;;;5142940;27;19929;-75
2022/12/31 14:06:24;;;;;;;;;;;14.10;99.90;;;;;;5134923;27;20021;-74
2022/12/31 14:08:51;;;;;;;;;;;14.10;99.90;;;;;;5154858;27;19923;-75
2022/12/31 14:11:28;;;;;;;;;;;14.00;99.90;;;;;;5119278;27;19984;-74
2022/12/31 14:14:03;;;;;;;;;;;14.50;99.90;;;;;;5119233;27;20402;-74
2022/12/31 14:16:29;;;;;;;;;;;;;;;;;;5147850;27;19923;-76
2022/12/31 14:18:57;;;;;;;;;;;14.10;99.90;;;;;;5153679;27;19923;-74
2022/12/31 14:21:27;;;;;;;;;;;14.50;99.90;;;;;;5142610;27;19919;-74
2022/12/31 14:23:53;;;;;;;;;;;;;;;;;;5156390;27;19922;-74
2022/12/31 14:26:27;;;;;;;;;;;14.60;99.90;;;;;;5138202;27;19919;-75
2022/12/31 14:28:59;;;;;;;;;;;14.70;99.90;;;;;;5135721;27;19934;-75
2022/12/31 14:31:28;;;;;;;;;;;14.60;99.90;;;;;;5123394;27;19925;-74
2022/12/31 14:34:14;;;;;;;;;;;14.90;99.90;;;;;;5154660;27;20545;-74
2022/12/31 14:36:45;;;;;;;;;;;14.30;99.90;;;;;;5100811;27;19934;-74
2022/12/31 14:39:29;;;;;;;;;;;14.00;99.90;;;;;;5129321;27;19974;-75
2022/12/31 14:42:01;;;;;;;;;;;14.30;99.90;;;;;;5158091;27;19925;-74
2022/12/31 14:44:45;;;;;;;;;;;14.30;99.90;;;;;;5143645;27;19934;-74
2022/12/31 14:47:25;;;;;;;;;;;14.20;99.90;;;;;;5138388;27;19926;-74
2022/12/31 14:49:54;;;;;;;;;;;14.90;99.90;;;;;;5125595;27;19922;-74
2022/12/31 14:52:21;;;;;;;;;;;14.70;99.90;;;;;;5145218;27;19929;-74
2022/12/31 14:54:56;;;;;;;;;;;13.90;99.90;;;;;;5175085;27;19930;-74
2022/12/31 14:57:26;;;;;;;;;;;13.80;99.90;;;;;;5136239;27;19972;-74
2022/12/31 14:59:56;;;;;;;;;;;13.80;99.90;;;;;;5135521;27;19962;-74
2022/12/31 15:02:24;;;;;;;;;;;14.00;99.90;;;;;;5162816;27;20036;-74
2022/12/31 15:04:50;;;;;;;;;;;13.80;99.90;;;;;;5136739;27;19930;-74
2022/12/31 15:07:17;;;;;;;;;;;13.90;99.90;;;;;;5146120;27;20354;-74
2022/12/31 15:09:49;;;;;;;;;;;14.60;99.90;;;;;;5144364;27;19919;-73